Time,TemperatureF,DewpointF,PressureIn,WindDirection,WindDirectionDegrees,WindSpeedMPH,WindSpeedGustMPH,Humidity,HourlyPrecipIn,Conditions,Clouds,dailyrainin,SolarRadiationWatts/m^2,SoftwareType,DateUTC
2013-08-08 00:12:00,59.2,56.0,29.75,West,266,2.0,6.0,88,0.00,,,0.00,0,weatherlink.com 1.10,2013-08-08 08:12:00,
2013-08-08 00:27:00,58.8,56.0,29.75,West,266,0.0,2.0,89,0.00,,,0.00,0,weatherlink.com 1.10,2013-08-08 08:27:00,
2013-08-08 00:42:00,58.9,56.0,29.75,West,266,0.0,2.0,89,0.00,,,0.00,0,weatherlink.com 1.10,2013-08-08 08:42:00,
2013-08-08 00:57:00,58.6,56.0,29.75,West,267,5.0,5.0,90,0.00,,,0.00,0,weatherlink.com 1.10,2013-08-08 08:57:00,
2013-08-08 01:12:00,58.4,55.0,29.75,West,267,2.0,2.0,89,0.00,,,0.00,0,weatherlink.com 1.10,2013-08-08 09:12:00,
2013-08-08 01:27:00,58.5,56.0,29.75,West,267,0.0,5.0,90,0.00,,,0.00,0,weatherlink.com 1.10,2013-08-08 09:27:00,
2013-08-08 01:42:00,58.4,55.0,29.75,West,267,0.0,0.0,89,0.00,,,0.00,0,weatherlink.com 1.10,2013-08-08 09:42:00,
2013-08-08 01:57:00,58.0,55.0,29.75,West,267,0.0,4.0,89,0.00,,,0.00,0,weatherlink.com 1.10,2013-08-08 09:57:00,
2013-08-08 02:12:00,57.7,55.0,29.75,West,267,0.0,1.0,91,0.00,,,0.00,0,weatherlink.com 1.10,2013-08-08 10:12:00,
2013-08-08 02:27:00,57.4,55.0,29.75,West,267,0.0,4.0,91,0.00,,,0.00,0,weatherlink.com 1.10,2013-08-08 10:27:00,
2013-08-08 02:42:00,57.3,55.0,29.75,West,267,0.0,2.0,91,0.00,,,0.00,0,weatherlink.com 1.10,2013-08-08 10:42:00,
2013-08-08 02:57:00,57.3,55.0,29.74,West,267,2.0,5.0,91,0.00,,,0.00,0,weatherlink.com 1.10,2013-08-08 10:57:00,
2013-08-08 03:12:00,57.1,55.0,29.75,WSW,254,7.0,8.0,91,0.00,,,0.00,0,weatherlink.com 1.10,2013-08-08 11:12:00,
2013-08-08 03:27:00,56.7,55.0,29.75,WSW,255,4.0,6.0,92,0.00,,,0.00,0,weatherlink.com 1.10,2013-08-08 11:27:00,
2013-08-08 03:42:00,56.4,55.0,29.75,WSW,255,0.0,2.0,93,0.00,,,0.00,0,weatherlink.com 1.10,2013-08-08 11:42:00,
2013-08-08 03:57:00,56.4,55.0,29.75,WSW,255,4.0,4.0,93,0.00,,,0.00,0,weatherlink.com 1.10,2013-08-08 11:57:00,
2013-08-08 04:12:00,56.1,54.0,29.74,WSW,255,2.0,4.0,94,0.01,,,0.01,0,weatherlink.com 1.10,2013-08-08 12:12:00,
2013-08-08 04:27:00,56.0,54.0,29.74,WSW,255,0.0,1.0,94,0.01,,,0.01,0,weatherlink.com 1.10,2013-08-08 12:27:00,
2013-08-08 04:42:00,56.0,54.0,29.74,WSW,255,2.0,5.0,94,0.01,,,0.01,0,weatherlink.com 1.10,2013-08-08 12:42:00,
2013-08-08 04:57:00,55.9,54.0,29.74,WSW,255,0.0,4.0,94,0.01,,,0.01,0,weatherlink.com 1.10,2013-08-08 12:57:00,
2013-08-08 05:12:00,56.2,54.0,29.74,WSW,253,4.0,6.0,93,0.00,,,0.01,0,weatherlink.com 1.10,2013-08-08 13:12:00,
2013-08-08 05:27:00,56.2,54.0,29.74,WSW,253,1.0,2.0,92,0.00,,,0.01,0,weatherlink.com 1.10,2013-08-08 13:27:00,
2013-08-08 05:42:00,56.4,55.0,29.74,WSW,253,1.0,5.0,93,0.00,,,0.01,0,weatherlink.com 1.10,2013-08-08 13:42:00,
2013-08-08 05:57:00,55.8,54.0,29.73,WSW,253,5.0,6.0,93,0.00,,,0.01,0,weatherlink.com 1.10,2013-08-08 13:57:00,
2013-08-08 06:12:00,55.6,54.0,29.73,WSW,254,5.0,6.0,94,0.00,,,0.01,0,weatherlink.com 1.10,2013-08-08 14:12:00,
2013-08-08 06:27:00,55.8,54.0,29.74,WSW,254,0.0,5.0,95,0.00,,,0.01,0,weatherlink.com 1.10,2013-08-08 14:27:00,
2013-08-08 06:42:00,56.1,54.0,29.73,WSW,254,1.0,5.0,94,0.00,,,0.01,7,weatherlink.com 1.10,2013-08-08 14:42:00,
2013-08-08 06:57:00,56.0,54.0,29.73,WSW,254,2.0,2.0,94,0.00,,,0.01,7,weatherlink.com 1.10,2013-08-08 14:57:00,
2013-08-08 07:12:00,55.8,54.0,29.73,WSW,254,0.0,5.0,94,0.01,,,0.02,9,weatherlink.com 1.10,2013-08-08 15:12:00,
2013-08-08 07:28:00,55.7,54.0,29.73,WSW,254,4.0,5.0,94,0.01,,,0.02,11,weatherlink.com 1.10,2013-08-08 15:28:00,
2013-08-08 07:42:00,55.6,54.0,29.73,WSW,254,1.0,2.0,94,0.01,,,0.02,21,weatherlink.com 1.10,2013-08-08 15:42:00,
2013-08-08 07:57:00,55.7,54.0,29.73,WSW,254,0.0,2.0,93,0.01,,,0.02,32,weatherlink.com 1.10,2013-08-08 15:57:00,
2013-08-08 08:12:00,56.0,54.0,29.73,WSW,254,2.0,2.0,93,0.00,,,0.02,62,weatherlink.com 1.10,2013-08-08 16:12:00,
2013-08-08 08:28:00,56.1,54.0,29.74,WSW,253,4.0,7.0,93,0.00,,,0.02,70,weatherlink.com 1.10,2013-08-08 16:28:00,
2013-08-08 08:42:00,56.4,54.0,29.73,WSW,253,2.0,6.0,92,0.00,,,0.02,102,weatherlink.com 1.10,2013-08-08 16:42:00,
2013-08-08 08:57:00,56.5,54.0,29.73,WSW,252,4.0,6.0,90,0.00,,,0.02,250,weatherlink.com 1.10,2013-08-08 16:57:00,
2013-08-08 09:12:00,56.9,54.0,29.73,West,264,2.0,7.0,89,0.00,,,0.02,401,weatherlink.com 1.10,2013-08-08 17:12:00,
2013-08-08 09:27:00,57.6,55.0,29.73,West,267,6.0,7.0,90,0.00,,,0.02,429,weatherlink.com 1.10,2013-08-08 17:27:00,
2013-08-08 09:42:00,58.4,55.0,29.73,WSW,251,7.0,9.0,88,0.00,,,0.02,490,weatherlink.com 1.10,2013-08-08 17:42:00,
2013-08-08 09:57:00,58.3,56.0,29.73,West,276,4.0,8.0,90,0.00,,,0.02,578,weatherlink.com 1.10,2013-08-08 17:57:00,
2013-08-08 10:12:00,57.9,55.0,29.73,WSW,250,5.0,9.0,90,0.00,,,0.02,199,weatherlink.com 1.10,2013-08-08 18:12:00,
2013-08-08 10:27:00,57.5,55.0,29.74,WSW,254,5.0,8.0,90,0.00,,,0.02,455,weatherlink.com 1.10,2013-08-08 18:27:00,
2013-08-08 10:43:00,58.6,55.0,29.74,WSW,252,8.0,8.0,87,0.00,,,0.02,216,weatherlink.com 1.10,2013-08-08 18:43:00,
2013-08-08 10:58:00,58.4,54.0,29.75,WSW,250,5.0,9.0,85,0.00,,,0.02,216,weatherlink.com 1.10,2013-08-08 18:58:00,
2013-08-08 11:13:00,59.0,55.0,29.75,WSW,257,6.0,7.0,85,0.00,,,0.02,443,weatherlink.com 1.10,2013-08-08 19:13:00,
2013-08-08 11:28:00,59.8,55.0,29.75,West,262,4.0,7.0,84,0.00,,,0.02,366,weatherlink.com 1.10,2013-08-08 19:28:00,
2013-08-08 11:43:00,61.9,56.0,29.76,WNW,289,6.0,8.0,80,0.00,,,0.02,178,weatherlink.com 1.10,2013-08-08 19:43:00,
2013-08-08 11:58:00,61.9,56.0,29.77,West,263,4.0,7.0,81,0.00,,,0.02,237,weatherlink.com 1.10,2013-08-08 19:58:00,
2013-08-08 12:13:00,61.4,56.0,29.76,ESE,120,0.0,16.0,81,0.00,,,0.02,139,weatherlink.com 1.10,2013-08-08 20:13:00,
2013-08-08 12:28:00,61.6,55.0,29.76,SE,130,0.0,13.0,79,0.00,,,0.02,209,weatherlink.com 1.10,2013-08-08 20:28:00,
2013-08-08 12:43:00,61.4,56.0,29.76,SSW,198,0.0,11.0,81,0.00,,,0.02,288,weatherlink.com 1.10,2013-08-08 20:43:00,
2013-08-08 12:58:00,62.9,57.0,29.75,WSW,254,8.0,10.0,80,0.00,,,0.02,181,weatherlink.com 1.10,2013-08-08 20:58:00,
2013-08-08 13:28:00,61.1,56.0,29.75,WSW,246,8.0,18.0,83,0.00,,,0.02,156,weatherlink.com 1.10,2013-08-08 21:28:00,
2013-08-08 13:43:00,62.0,56.0,29.76,WSW,248,6.0,12.0,82,0.00,,,0.02,118,weatherlink.com 1.10,2013-08-08 21:43:00,
2013-08-08 13:58:00,61.4,56.0,29.76,West,265,10.0,14.0,83,0.00,,,0.02,165,weatherlink.com 1.10,2013-08-08 21:58:00,
2013-08-08 14:28:00,60.5,55.0,29.77,WSW,238,11.0,14.0,83,0.00,,,0.02,211,weatherlink.com 1.10,2013-08-08 22:28:00,
2013-08-08 14:43:00,60.7,55.0,29.77,SW,234,14.0,16.0,82,0.00,,,0.02,165,weatherlink.com 1.10,2013-08-08 22:43:00,
2013-08-08 14:58:00,60.5,55.0,29.77,West,259,7.0,18.0,81,0.00,,,0.02,179,weatherlink.com 1.10,2013-08-08 22:58:00,
2013-08-08 15:13:00,63.0,56.0,29.77,SSE,167,11.0,22.0,78,0.00,,,0.02,190,weatherlink.com 1.10,2013-08-08 23:13:00,
2013-08-08 15:28:00,62.2,55.0,29.78,SSW,209,8.0,22.0,77,0.00,,,0.02,172,weatherlink.com 1.10,2013-08-08 23:28:00,
2013-08-08 15:43:00,60.2,53.0,29.79,SSW,201,16.0,19.0,77,0.00,,,0.02,193,weatherlink.com 1.10,2013-08-08 23:43:00,
2013-08-08 15:58:00,60.1,53.0,29.78,SW,220,11.0,19.0,78,0.00,,,0.02,130,weatherlink.com 1.10,2013-08-08 23:58:00,
2013-08-08 16:13:00,60.8,52.0,29.80,SSW,197,14.0,19.0,74,0.00,,,0.02,657,weatherlink.com 1.10,2013-08-09 00:13:00,
2013-08-08 16:28:00,59.6,51.0,29.80,SSW,198,10.0,20.0,73,0.00,,,0.02,192,weatherlink.com 1.10,2013-08-09 00:28:00,
2013-08-08 16:43:00,58.8,50.0,29.80,SSW,196,16.0,24.0,73,0.00,,,0.02,206,weatherlink.com 1.10,2013-08-09 00:43:00,
2013-08-08 16:58:00,58.8,51.0,29.81,SSW,204,7.0,21.0,74,0.00,,,0.02,285,weatherlink.com 1.10,2013-08-09 00:58:00,
2013-08-08 17:13:00,58.3,49.0,29.81,South,190,9.0,26.0,72,0.00,,,0.02,190,weatherlink.com 1.10,2013-08-09 01:13:00,
2013-08-08 17:28:00,58.1,49.0,29.81,SSE,160,6.0,20.0,73,0.00,,,0.02,158,weatherlink.com 1.10,2013-08-09 01:28:00,
2013-08-08 17:43:00,57.8,50.0,29.81,SSW,192,8.0,20.0,74,0.00,,,0.02,172,weatherlink.com 1.10,2013-08-09 01:43:00,
2013-08-08 17:58:00,57.8,49.0,29.81,SSW,200,9.0,18.0,73,0.00,,,0.02,171,weatherlink.com 1.10,2013-08-09 01:58:00,
2013-08-08 18:28:00,58.2,49.0,29.82,SE,127,4.0,18.0,71,0.00,,,0.02,132,weatherlink.com 1.10,2013-08-09 02:28:00,
2013-08-08 18:43:00,58.2,49.0,29.81,SW,217,6.0,20.0,71,0.00,,,0.02,141,weatherlink.com 1.10,2013-08-09 02:43:00,
2013-08-08 18:58:00,59.2,49.0,29.81,South,184,9.0,15.0,69,0.00,,,0.02,352,weatherlink.com 1.10,2013-08-09 02:58:00,
2013-08-08 19:13:00,59.4,49.0,29.81,South,183,8.0,11.0,69,0.00,,,0.02,283,weatherlink.com 1.10,2013-08-09 03:13:00,
2013-08-08 19:28:00,59.7,50.0,29.81,South,182,7.0,12.0,70,0.00,,,0.02,221,weatherlink.com 1.10,2013-08-09 03:28:00,
2013-08-08 19:43:00,58.8,50.0,29.81,ESE,109,1.0,12.0,72,0.00,,,0.02,127,weatherlink.com 1.10,2013-08-09 03:43:00,
2013-08-08 19:58:00,58.1,49.0,29.82,South,181,13.0,15.0,72,0.00,,,0.02,69,weatherlink.com 1.10,2013-08-09 03:58:00,
2013-08-08 20:13:00,57.3,49.0,29.80,South,186,12.0,12.0,75,0.00,,,0.02,49,weatherlink.com 1.10,2013-08-09 04:13:00,
2013-08-08 20:28:00,57.0,50.0,29.80,SW,218,2.0,13.0,76,0.00,,,0.02,47,weatherlink.com 1.10,2013-08-09 04:28:00,
2013-08-08 20:43:00,56.9,49.0,29.80,SW,221,4.0,13.0,76,0.00,,,0.02,30,weatherlink.com 1.10,2013-08-09 04:43:00,
2013-08-08 20:58:00,56.7,50.0,29.80,SW,229,10.0,12.0,78,0.00,,,0.00,19,weatherlink.com 1.10,2013-08-09 04:58:00,
2013-08-08 21:13:00,56.6,50.0,29.80,SW,223,8.0,12.0,79,0.00,,,0.00,16,weatherlink.com 1.10,2013-08-09 05:13:00,
2013-08-08 21:28:00,57.3,51.0,29.80,WSW,251,2.0,8.0,80,0.00,,,0.00,9,weatherlink.com 1.10,2013-08-09 05:28:00,
2013-08-08 21:43:00,57.6,50.0,29.80,West,265,6.0,9.0,77,0.00,,,0.00,0,weatherlink.com 1.10,2013-08-09 05:43:00,
2013-08-08 21:58:00,56.9,50.0,29.80,NW,318,7.0,8.0,78,0.00,,,0.00,0,weatherlink.com 1.10,2013-08-09 05:58:00,
2013-08-08 22:13:00,56.7,50.0,29.81,WNW,302,4.0,6.0,77,0.00,,,0.00,0,weatherlink.com 1.10,2013-08-09 06:13:00,
2013-08-08 22:29:00,56.7,50.0,29.80,NW,315,8.0,10.0,77,0.00,,,0.00,0,weatherlink.com 1.10,2013-08-09 06:29:00,
2013-08-08 22:44:00,56.4,49.0,29.81,North,349,5.0,8.0,77,0.00,,,0.00,0,weatherlink.com 1.10,2013-08-09 06:44:00,
2013-08-08 22:59:00,56.2,49.0,29.81,NW,313,5.0,8.0,77,0.00,,,0.00,0,weatherlink.com 1.10,2013-08-09 06:59:00,
2013-08-08 23:14:00,56.4,49.0,29.82,WNW,297,4.0,8.0,77,0.00,,,0.00,0,weatherlink.com 1.10,2013-08-09 07:14:00,
2013-08-08 23:29:00,56.4,49.0,29.82,NNE,16,0.0,5.0,76,0.00,,,0.00,0,weatherlink.com 1.10,2013-08-09 07:29:00,
2013-08-08 23:44:00,56.5,50.0,29.82,North,355,4.0,6.0,80,0.00,,,0.00,0,weatherlink.com 1.10,2013-08-09 07:44:00,
2013-08-08 23:59:00,56.7,49.0,29.82,WNW,284,0.0,7.0,75,0.00,,,0.00,0,weatherlink.com 1.10,2013-08-09 07:59:00,